sensor_id;sensor_type;location;lat;lon;timestamp;P1;durP1;ratioP1;P2;durP2;ratioP2
6372;SDS011;3219;51.362;7.074;2023-05-07T00:00:02;2.95;;;2.13;;
6372;SDS011;3219;51.362;7.074;2023-05-07T00:02:32;6.13;;;1.88;;
6372;SDS011;3219;51.362;7.074;2023-05-07T00:04:59;2.72;;;2.22;;
6372;SDS011;3219;51.362;7.074;2023-05-07T00:07:27;2.92;;;2.10;;
6372;SDS011;3219;51.362;7.074;2023-05-07T00:09:55;4.38;;;1.77;;
6372;SDS011;3219;51.362;7.074;2023-05-07T00:12:22;3.30;;;1.95;;
6372;SDS011;3219;51.362;7.074;2023-05-07T00:14:50;2.28;;;1.83;;
6372;SDS011;3219;51.362;7.074;2023-05-07T00:17:17;2.55;;;1.85;;
6372;SDS011;3219;51.362;7.074;2023-05-07T00:19:44;2.58;;;1.52;;
6372;SDS011;3219;51.362;7.074;2023-05-07T00:22:11;2.65;;;2.40;;
6372;SDS011;3219;51.362;7.074;2023-05-07T00:24:38;2.67;;;1.52;;
6372;SDS011;3219;51.362;7.074;2023-05-07T00:27:07;1.95;;;1.85;;
6372;SDS011;3219;51.362;7.074;2023-05-07T00:29:34;1.90;;;1.38;;
6372;SDS011;3219;51.362;7.074;2023-05-07T00:32:01;1.98;;;1.38;;
6372;SDS011;3219;51.362;7.074;2023-05-07T00:34:28;3.60;;;1.92;;
6372;SDS011;3219;51.362;7.074;2023-05-07T00:36:55;2.60;;;1.80;;
6372;SDS011;3219;51.362;7.074;2023-05-07T00:39:22;2.55;;;1.80;;
6372;SDS011;3219;51.362;7.074;2023-05-07T00:41:50;3.45;;;1.73;;
6372;SDS011;3219;51.362;7.074;2023-05-07T00:44:18;3.15;;;1.60;;
6372;SDS011;3219;51.362;7.074;2023-05-07T00:46:45;4.85;;;2.67;;
6372;SDS011;3219;51.362;7.074;2023-05-07T00:49:14;3.95;;;2.13;;
6372;SDS011;3219;51.362;7.074;2023-05-07T00:51:42;2.30;;;1.92;;
6372;SDS011;3219;51.362;7.074;2023-05-07T00:54:09;3.13;;;2.15;;
6372;SDS011;3219;51.362;7.074;2023-05-07T00:56:36;1.88;;;1.67;;
6372;SDS011;3219;51.362;7.074;2023-05-07T00:59:04;2.78;;;2.45;;
6372;SDS011;3219;51.362;7.074;2023-05-07T01:01:33;3.10;;;2.25;;
6372;SDS011;3219;51.362;7.074;2023-05-07T01:04:01;2.60;;;2.05;;
6372;SDS011;3219;51.362;7.074;2023-05-07T01:06:28;2.88;;;2.67;;
6372;SDS011;3219;51.362;7.074;2023-05-07T01:08:57;3.85;;;1.95;;
6372;SDS011;3219;51.362;7.074;2023-05-07T01:11:25;3.13;;;2.08;;
6372;SDS011;3219;51.362;7.074;2023-05-07T01:13:52;3.35;;;2.47;;
6372;SDS011;3219;51.362;7.074;2023-05-07T01:16:19;2.40;;;2.20;;
6372;SDS011;3219;51.362;7.074;2023-05-07T01:18:48;2.63;;;1.58;;
6372;SDS011;3219;51.362;7.074;2023-05-07T01:21:15;2.47;;;2.20;;
6372;SDS011;3219;51.362;7.074;2023-05-07T01:23:46;2.88;;;1.95;;
6372;SDS011;3219;51.362;7.074;2023-05-07T01:26:13;2.80;;;1.85;;
6372;SDS011;3219;51.362;7.074;2023-05-07T01:28:41;2.83;;;1.73;;
6372;SDS011;3219;51.362;7.074;2023-05-07T01:31:08;3.35;;;1.38;;
6372;SDS011;3219;51.362;7.074;2023-05-07T01:33:35;3.65;;;2.35;;
6372;SDS011;3219;51.362;7.074;2023-05-07T01:36:04;3.38;;;2.63;;
6372;SDS011;3219;51.362;7.074;2023-05-07T01:38:33;2.50;;;2.08;;
6372;SDS011;3219;51.362;7.074;2023-05-07T01:41:02;3.85;;;2.13;;
6372;SDS011;3219;51.362;7.074;2023-05-07T01:43:29;2.60;;;1.55;;
6372;SDS011;3219;51.362;7.074;2023-05-07T01:45:57;1.70;;;1.60;;
6372;SDS011;3219;51.362;7.074;2023-05-07T01:48:24;2.92;;;1.95;;
6372;SDS011;3219;51.362;7.074;2023-05-07T01:50:52;2.47;;;1.85;;
6372;SDS011;3219;51.362;7.074;2023-05-07T01:53:20;2.45;;;1.98;;
6372;SDS011;3219;51.362;7.074;2023-05-07T01:55:47;2.85;;;2.15;;
6372;SDS011;3219;51.362;7.074;2023-05-07T01:58:15;2.67;;;1.60;;
6372;SDS011;3219;51.362;7.074;2023-05-07T02:00:42;1.58;;;1.38;;
6372;SDS011;3219;51.362;7.074;2023-05-07T02:03:09;2.05;;;1.15;;
6372;SDS011;3219;51.362;7.074;2023-05-07T02:05:36;2.35;;;1.63;;
6372;SDS011;3219;51.362;7.074;2023-05-07T02:08:04;2.35;;;1.88;;
6372;SDS011;3219;51.362;7.074;2023-05-07T02:10:31;1.55;;;1.17;;
6372;SDS011;3219;51.362;7.074;2023-05-07T02:12:58;3.20;;;1.73;;
6372;SDS011;3219;51.362;7.074;2023-05-07T02:15:28;3.75;;;3.45;;
6372;SDS011;3219;51.362;7.074;2023-05-07T02:17:58;1.67;;;1.58;;
6372;SDS011;3219;51.362;7.074;2023-05-07T02:20:27;2.00;;;1.25;;
6372;SDS011;3219;51.362;7.074;2023-05-07T02:22:54;1.95;;;1.48;;
6372;SDS011;3219;51.362;7.074;2023-05-07T02:25:21;1.92;;;1.58;;
6372;SDS011;3219;51.362;7.074;2023-05-07T02:27:48;2.83;;;1.90;;
6372;SDS011;3219;51.362;7.074;2023-05-07T02:30:15;4.05;;;2.28;;
6372;SDS011;3219;51.362;7.074;2023-05-07T02:32:44;3.28;;;1.67;;
6372;SDS011;3219;51.362;7.074;2023-05-07T02:35:11;2.58;;;2.20;;
6372;SDS011;3219;51.362;7.074;2023-05-07T02:37:38;2.67;;;2.17;;
6372;SDS011;3219;51.362;7.074;2023-05-07T02:40:05;3.25;;;1.25;;
6372;SDS011;3219;51.362;7.074;2023-05-07T02:42:32;5.20;;;2.03;;
6372;SDS011;3219;51.362;7.074;2023-05-07T02:44:59;2.03;;;1.83;;
6372;SDS011;3219;51.362;7.074;2023-05-07T02:47:26;2.67;;;1.65;;
6372;SDS011;3219;51.362;7.074;2023-05-07T02:49:55;2.42;;;2.15;;
6372;SDS011;3219;51.362;7.074;2023-05-07T02:52:22;2.13;;;1.75;;
6372;SDS011;3219;51.362;7.074;2023-05-07T02:54:49;2.42;;;2.22;;
6372;SDS011;3219;51.362;7.074;2023-05-07T02:57:16;1.77;;;1.52;;
6372;SDS011;3219;51.362;7.074;2023-05-07T02:59:43;3.10;;;1.58;;
6372;SDS011;3219;51.362;7.074;2023-05-07T03:02:10;1.67;;;1.52;;
6372;SDS011;3219;51.362;7.074;2023-05-07T03:04:38;2.13;;;1.58;;
6372;SDS011;3219;51.362;7.074;2023-05-07T03:07:07;2.83;;;2.30;;
6372;SDS011;3219;51.362;7.074;2023-05-07T03:09:34;2.40;;;1.30;;
6372;SDS011;3219;51.362;7.074;2023-05-07T03:12:01;1.83;;;1.73;;
6372;SDS011;3219;51.362;7.074;2023-05-07T03:14:28;2.25;;;2.05;;
6372;SDS011;3219;51.362;7.074;2023-05-07T03:16:55;1.55;;;1.40;;
6372;SDS011;3219;51.362;7.074;2023-05-07T03:19:22;2.38;;;1.67;;
6372;SDS011;3219;51.362;7.074;2023-05-07T03:21:50;2.25;;;1.73;;
6372;SDS011;3219;51.362;7.074;2023-05-07T03:24:18;2.85;;;2.28;;
6372;SDS011;3219;51.362;7.074;2023-05-07T03:26:45;2.17;;;1.80;;
6372;SDS011;3219;51.362;7.074;2023-05-07T03:29:12;1.77;;;1.63;;
6372;SDS011;3219;51.362;7.074;2023-05-07T03:31:39;1.80;;;1.70;;
6372;SDS011;3219;51.362;7.074;2023-05-07T03:34:06;2.28;;;1.65;;
6372;SDS011;3219;51.362;7.074;2023-05-07T03:36:33;2.72;;;1.83;;
6372;SDS011;3219;51.362;7.074;2023-05-07T03:39:00;3.65;;;2.63;;
6372;SDS011;3219;51.362;7.074;2023-05-07T03:41:29;2.47;;;1.80;;
6372;SDS011;3219;51.362;7.074;2023-05-07T03:43:56;1.50;;;1.40;;
6372;SDS011;3219;51.362;7.074;2023-05-07T03:46:23;2.65;;;1.67;;
6372;SDS011;3219;51.362;7.074;2023-05-07T03:48:51;2.15;;;1.33;;
6372;SDS011;3219;51.362;7.074;2023-05-07T03:51:18;1.85;;;0.90;;
6372;SDS011;3219;51.362;7.074;2023-05-07T03:53:45;1.83;;;1.65;;
6372;SDS011;3219;51.362;7.074;2023-05-07T03:56:12;2.58;;;1.55;;
6372;SDS011;3219;51.362;7.074;2023-05-07T03:58:40;1.92;;;1.42;;
6372;SDS011;3219;51.362;7.074;2023-05-07T04:01:08;1.65;;;1.10;;
6372;SDS011;3219;51.362;7.074;2023-05-07T04:03:35;1.50;;;1.40;;
6372;SDS011;3219;51.362;7.074;2023-05-07T04:06:01;2.03;;;1.23;;
6372;SDS011;3219;51.362;7.074;2023-05-07T04:08:29;1.52;;;1.25;;
6372;SDS011;3219;51.362;7.074;2023-05-07T04:10:56;1.73;;;1.48;;
6372;SDS011;3219;51.362;7.074;2023-05-07T04:13:24;1.67;;;1.42;;
6372;SDS011;3219;51.362;7.074;2023-05-07T04:15:52;1.45;;;1.35;;
6372;SDS011;3219;51.362;7.074;2023-05-07T04:18:20;1.50;;;1.40;;
6372;SDS011;3219;51.362;7.074;2023-05-07T04:20:47;1.88;;;1.67;;
6372;SDS011;3219;51.362;7.074;2023-05-07T04:23:14;2.10;;;1.85;;
6372;SDS011;3219;51.362;7.074;2023-05-07T04:25:41;3.45;;;1.90;;
6372;SDS011;3219;51.362;7.074;2023-05-07T04:28:08;1.80;;;1.58;;
6372;SDS011;3219;51.362;7.074;2023-05-07T04:30:34;2.58;;;1.58;;
6372;SDS011;3219;51.362;7.074;2023-05-07T04:33:02;1.95;;;1.05;;
6372;SDS011;3219;51.362;7.074;2023-05-07T04:35:29;1.73;;;1.40;;
6372;SDS011;3219;51.362;7.074;2023-05-07T04:37:56;1.98;;;1.40;;
6372;SDS011;3219;51.362;7.074;2023-05-07T04:40:23;2.08;;;1.58;;
6372;SDS011;3219;51.362;7.074;2023-05-07T04:42:49;2.03;;;1.88;;
6372;SDS011;3219;51.362;7.074;2023-05-07T04:45:16;2.60;;;1.52;;
6372;SDS011;3219;51.362;7.074;2023-05-07T04:47:43;2.38;;;2.00;;
6372;SDS011;3219;51.362;7.074;2023-05-07T04:50:11;2.05;;;1.55;;
6372;SDS011;3219;51.362;7.074;2023-05-07T04:52:38;2.33;;;2.10;;
6372;SDS011;3219;51.362;7.074;2023-05-07T04:55:05;1.52;;;1.40;;
6372;SDS011;3219;51.362;7.074;2023-05-07T04:57:32;1.30;;;1.15;;
6372;SDS011;3219;51.362;7.074;2023-05-07T04:59:59;2.75;;;1.23;;
6372;SDS011;3219;51.362;7.074;2023-05-07T05:02:26;2.45;;;2.03;;
6372;SDS011;3219;51.362;7.074;2023-05-07T05:04:52;2.92;;;1.25;;
6372;SDS011;3219;51.362;7.074;2023-05-07T05:07:20;1.65;;;1.27;;
6372;SDS011;3219;51.362;7.074;2023-05-07T05:09:47;2.78;;;1.52;;
6372;SDS011;3219;51.362;7.074;2023-05-07T05:12:14;1.67;;;1.38;;
6372;SDS011;3219;51.362;7.074;2023-05-07T05:14:41;0.90;;;0.75;;
6372;SDS011;3219;51.362;7.074;2023-05-07T05:17:07;2.67;;;1.95;;
6372;SDS011;3219;51.362;7.074;2023-05-07T05:19:34;3.08;;;1.70;;
6372;SDS011;3219;51.362;7.074;2023-05-07T05:22:01;4.30;;;1.90;;
6372;SDS011;3219;51.362;7.074;2023-05-07T05:24:30;2.28;;;1.85;;
6372;SDS011;3219;51.362;7.074;2023-05-07T05:26:56;2.13;;;1.70;;
6372;SDS011;3219;51.362;7.074;2023-05-07T05:29:24;1.48;;;1.30;;
6372;SDS011;3219;51.362;7.074;2023-05-07T05:31:51;2.05;;;1.58;;
6372;SDS011;3219;51.362;7.074;2023-05-07T05:34:18;3.10;;;1.33;;
6372;SDS011;3219;51.362;7.074;2023-05-07T05:36:45;2.33;;;1.73;;
6372;SDS011;3219;51.362;7.074;2023-05-07T05:39:12;2.42;;;1.73;;
6372;SDS011;3219;51.362;7.074;2023-05-07T05:41:40;2.47;;;1.67;;
6372;SDS011;3219;51.362;7.074;2023-05-07T05:44:07;1.27;;;1.17;;
6372;SDS011;3219;51.362;7.074;2023-05-07T05:46:34;2.67;;;1.50;;
6372;SDS011;3219;51.362;7.074;2023-05-07T05:49:01;1.52;;;1.20;;
6372;SDS011;3219;51.362;7.074;2023-05-07T05:51:28;2.75;;;1.70;;
6372;SDS011;3219;51.362;7.074;2023-05-07T05:53:54;2.92;;;1.55;;
6372;SDS011;3219;51.362;7.074;2023-05-07T05:56:21;2.42;;;1.45;;
6372;SDS011;3219;51.362;7.074;2023-05-07T05:58:49;2.08;;;1.88;;
6372;SDS011;3219;51.362;7.074;2023-05-07T06:01:16;3.83;;;2.33;;
6372;SDS011;3219;51.362;7.074;2023-05-07T06:03:43;2.05;;;1.45;;
6372;SDS011;3219;51.362;7.074;2023-05-07T06:06:10;3.28;;;1.92;;
6372;SDS011;3219;51.362;7.074;2023-05-07T06:08:37;1.48;;;1.38;;
6372;SDS011;3219;51.362;7.074;2023-05-07T06:11:04;2.83;;;1.55;;
6372;SDS011;3219;51.362;7.074;2023-05-07T06:13:30;2.47;;;2.10;;
6372;SDS011;3219;51.362;7.074;2023-05-07T06:15:59;2.13;;;1.90;;
6372;SDS011;3219;51.362;7.074;2023-05-07T06:18:26;1.77;;;1.35;;
6372;SDS011;3219;51.362;7.074;2023-05-07T06:20:53;1.95;;;1.70;;
6372;SDS011;3219;51.362;7.074;2023-05-07T06:23:19;1.75;;;1.65;;
6372;SDS011;3219;51.362;7.074;2023-05-07T06:25:48;3.03;;;1.58;;
6372;SDS011;3219;51.362;7.074;2023-05-07T06:28:15;2.25;;;2.05;;
6372;SDS011;3219;51.362;7.074;2023-05-07T06:30:42;2.33;;;2.10;;
6372;SDS011;3219;51.362;7.074;2023-05-07T06:33:10;2.45;;;2.15;;
6372;SDS011;3219;51.362;7.074;2023-05-07T06:35:37;2.15;;;1.75;;
6372;SDS011;3219;51.362;7.074;2023-05-07T06:38:03;3.20;;;2.78;;
6372;SDS011;3219;51.362;7.074;2023-05-07T06:40:30;2.42;;;2.22;;
6372;SDS011;3219;51.362;7.074;2023-05-07T06:42:57;1.65;;;1.52;;
6372;SDS011;3219;51.362;7.074;2023-05-07T06:45:24;1.80;;;1.50;;
6372;SDS011;3219;51.362;7.074;2023-05-07T06:47:51;3.22;;;1.65;;
6372;SDS011;3219;51.362;7.074;2023-05-07T06:50:19;3.20;;;2.03;;
6372;SDS011;3219;51.362;7.074;2023-05-07T06:52:46;2.00;;;1.85;;
6372;SDS011;3219;51.362;7.074;2023-05-07T06:55:12;1.90;;;1.60;;
6372;SDS011;3219;51.362;7.074;2023-05-07T06:57:39;2.42;;;1.25;;
6372;SDS011;3219;51.362;7.074;2023-05-07T07:00:07;2.45;;;1.35;;
6372;SDS011;3219;51.362;7.074;2023-05-07T07:02:34;2.42;;;1.50;;
6372;SDS011;3219;51.362;7.074;2023-05-07T07:05:02;2.20;;;1.52;;
6372;SDS011;3219;51.362;7.074;2023-05-07T07:07:31;3.05;;;1.60;;
6372;SDS011;3219;51.362;7.074;2023-05-07T07:09:58;3.42;;;1.67;;
6372;SDS011;3219;51.362;7.074;2023-05-07T07:12:25;2.25;;;1.83;;
6372;SDS011;3219;51.362;7.074;2023-05-07T07:14:53;1.50;;;1.13;;
6372;SDS011;3219;51.362;7.074;2023-05-07T07:17:20;2.30;;;1.92;;
6372;SDS011;3219;51.362;7.074;2023-05-07T07:19:47;1.60;;;1.30;;
6372;SDS011;3219;51.362;7.074;2023-05-07T07:22:16;2.25;;;1.55;;
6372;SDS011;3219;51.362;7.074;2023-05-07T07:24:44;1.92;;;1.65;;
6372;SDS011;3219;51.362;7.074;2023-05-07T07:27:12;2.30;;;1.33;;
6372;SDS011;3219;51.362;7.074;2023-05-07T07:29:39;1.73;;;1.20;;
6372;SDS011;3219;51.362;7.074;2023-05-07T07:32:06;3.22;;;1.42;;
6372;SDS011;3219;51.362;7.074;2023-05-07T07:34:33;3.28;;;1.67;;
6372;SDS011;3219;51.362;7.074;2023-05-07T07:37:00;2.05;;;1.75;;
6372;SDS011;3219;51.362;7.074;2023-05-07T07:39:31;2.70;;;1.98;;
6372;SDS011;3219;51.362;7.074;2023-05-07T07:41:59;2.50;;;1.92;;
6372;SDS011;3219;51.362;7.074;2023-05-07T07:44:27;2.25;;;1.90;;
6372;SDS011;3219;51.362;7.074;2023-05-07T07:46:54;3.78;;;1.88;;
6372;SDS011;3219;51.362;7.074;2023-05-07T07:49:21;2.28;;;1.75;;
6372;SDS011;3219;51.362;7.074;2023-05-07T07:51:48;3.35;;;1.70;;
6372;SDS011;3219;51.362;7.074;2023-05-07T07:54:16;2.47;;;1.52;;
6372;SDS011;3219;51.362;7.074;2023-05-07T07:56:43;4.15;;;1.67;;
6372;SDS011;3219;51.362;7.074;2023-05-07T07:59:12;3.47;;;1.83;;
6372;SDS011;3219;51.362;7.074;2023-05-07T08:01:43;3.45;;;1.88;;
6372;SDS011;3219;51.362;7.074;2023-05-07T08:04:10;2.22;;;1.33;;
6372;SDS011;3219;51.362;7.074;2023-05-07T08:06:37;2.25;;;1.77;;
6372;SDS011;3219;51.362;7.074;2023-05-07T08:09:04;3.35;;;2.10;;
6372;SDS011;3219;51.362;7.074;2023-05-07T08:11:31;3.03;;;1.65;;
6372;SDS011;3219;51.362;7.074;2023-05-07T08:13:57;3.15;;;1.85;;
6372;SDS011;3219;51.362;7.074;2023-05-07T08:16:26;2.47;;;1.70;;
6372;SDS011;3219;51.362;7.074;2023-05-07T08:18:53;2.35;;;1.38;;
6372;SDS011;3219;51.362;7.074;2023-05-07T08:21:20;4.13;;;2.17;;
6372;SDS011;3219;51.362;7.074;2023-05-07T08:23:46;2.75;;;2.25;;
6372;SDS011;3219;51.362;7.074;2023-05-07T08:26:13;3.55;;;1.67;;
6372;SDS011;3219;51.362;7.074;2023-05-07T08:28:40;3.67;;;1.65;;
6372;SDS011;3219;51.362;7.074;2023-05-07T08:31:06;3.80;;;2.45;;
6372;SDS011;3219;51.362;7.074;2023-05-07T08:33:35;1.85;;;1.48;;
6372;SDS011;3219;51.362;7.074;2023-05-07T08:36:03;2.25;;;1.45;;
6372;SDS011;3219;51.362;7.074;2023-05-07T08:38:30;2.72;;;1.92;;
6372;SDS011;3219;51.362;7.074;2023-05-07T08:40:57;3.03;;;1.45;;
6372;SDS011;3219;51.362;7.074;2023-05-07T08:43:25;3.90;;;1.70;;
6372;SDS011;3219;51.362;7.074;2023-05-07T08:45:53;2.53;;;1.25;;
6372;SDS011;3219;51.362;7.074;2023-05-07T08:48:21;3.75;;;2.20;;
6372;SDS011;3219;51.362;7.074;2023-05-07T08:50:52;3.08;;;1.90;;
6372;SDS011;3219;51.362;7.074;2023-05-07T08:53:19;4.53;;;2.45;;
6372;SDS011;3219;51.362;7.074;2023-05-07T08:55:46;2.13;;;1.77;;
6372;SDS011;3219;51.362;7.074;2023-05-07T08:58:14;2.65;;;1.90;;
6372;SDS011;3219;51.362;7.074;2023-05-07T09:00:41;2.15;;;1.25;;
6372;SDS011;3219;51.362;7.074;2023-05-07T09:03:08;3.97;;;1.80;;
6372;SDS011;3219;51.362;7.074;2023-05-07T09:05:37;3.35;;;1.08;;
6372;SDS011;3219;51.362;7.074;2023-05-07T09:08:06;2.45;;;1.23;;
6372;SDS011;3219;51.362;7.074;2023-05-07T09:13:00;3.30;;;1.73;;
6372;SDS011;3219;51.362;7.074;2023-05-07T09:15:27;2.92;;;1.85;;
6372;SDS011;3219;51.362;7.074;2023-05-07T09:17:56;2.40;;;1.42;;
6372;SDS011;3219;51.362;7.074;2023-05-07T09:20:26;1.85;;;1.25;;
6372;SDS011;3219;51.362;7.074;2023-05-07T09:22:54;2.63;;;1.42;;
6372;SDS011;3219;51.362;7.074;2023-05-07T09:25:28;3.50;;;1.85;;
6372;SDS011;3219;51.362;7.074;2023-05-07T09:27:56;2.95;;;1.67;;
6372;SDS011;3219;51.362;7.074;2023-05-07T09:30:24;2.83;;;1.40;;
6372;SDS011;3219;51.362;7.074;2023-05-07T09:32:53;4.05;;;1.17;;
6372;SDS011;3219;51.362;7.074;2023-05-07T09:35:21;2.67;;;1.52;;
6372;SDS011;3219;51.362;7.074;2023-05-07T09:37:49;3.05;;;1.73;;
6372;SDS011;3219;51.362;7.074;2023-05-07T09:40:22;2.17;;;1.23;;
6372;SDS011;3219;51.362;7.074;2023-05-07T09:42:51;1.90;;;1.58;;
6372;SDS011;3219;51.362;7.074;2023-05-07T09:45:22;2.72;;;1.40;;
6372;SDS011;3219;51.362;7.074;2023-05-07T09:47:49;1.80;;;0.80;;
6372;SDS011;3219;51.362;7.074;2023-05-07T09:50:20;3.45;;;1.08;;
6372;SDS011;3219;51.362;7.074;2023-05-07T09:52:50;1.52;;;1.10;;
6372;SDS011;3219;51.362;7.074;2023-05-07T09:55:17;1.40;;;1.30;;
6372;SDS011;3219;51.362;7.074;2023-05-07T09:57:44;1.50;;;0.95;;
6372;SDS011;3219;51.362;7.074;2023-05-07T10:00:13;2.80;;;1.30;;
6372;SDS011;3219;51.362;7.074;2023-05-07T10:02:41;1.85;;;1.63;;
6372;SDS011;3219;51.362;7.074;2023-05-07T10:05:13;2.13;;;1.17;;
6372;SDS011;3219;51.362;7.074;2023-05-07T10:07:40;1.63;;;1.17;;
6372;SDS011;3219;51.362;7.074;2023-05-07T10:10:07;2.15;;;1.35;;
6372;SDS011;3219;51.362;7.074;2023-05-07T10:12:35;1.58;;;1.33;;
6372;SDS011;3219;51.362;7.074;2023-05-07T10:15:05;1.48;;;0.95;;
6372;SDS011;3219;51.362;7.074;2023-05-07T10:17:35;1.63;;;1.38;;
6372;SDS011;3219;51.362;7.074;2023-05-07T10:20:02;2.55;;;1.30;;
6372;SDS011;3219;51.362;7.074;2023-05-07T10:22:30;3.17;;;1.60;;
6372;SDS011;3219;51.362;7.074;2023-05-07T10:25:04;1.55;;;0.95;;
6372;SDS011;3219;51.362;7.074;2023-05-07T10:27:36;2.88;;;1.33;;
6372;SDS011;3219;51.362;7.074;2023-05-07T10:30:06;1.60;;;1.15;;
6372;SDS011;3219;51.362;7.074;2023-05-07T10:32:39;2.10;;;1.48;;
6372;SDS011;3219;51.362;7.074;2023-05-07T10:35:10;1.95;;;1.63;;
6372;SDS011;3219;51.362;7.074;2023-05-07T10:37:39;1.98;;;1.13;;
6372;SDS011;3219;51.362;7.074;2023-05-07T10:40:07;1.40;;;1.08;;
6372;SDS011;3219;51.362;7.074;2023-05-07T10:42:35;2.20;;;1.63;;
6372;SDS011;3219;51.362;7.074;2023-05-07T10:45:12;3.83;;;1.10;;
6372;SDS011;3219;51.362;7.074;2023-05-07T10:50:24;2.58;;;1.58;;
6372;SDS011;3219;51.362;7.074;2023-05-07T10:55:36;2.85;;;1.35;;
6372;SDS011;3219;51.362;7.074;2023-05-07T10:58:22;1.58;;;1.20;;
6372;SDS011;3219;51.362;7.074;2023-05-07T11:00:50;1.35;;;1.20;;
6372;SDS011;3219;51.362;7.074;2023-05-07T11:03:17;2.20;;;1.63;;
6372;SDS011;3219;51.362;7.074;2023-05-07T11:05:46;2.60;;;1.15;;
6372;SDS011;3219;51.362;7.074;2023-05-07T11:08:14;3.75;;;1.60;;
6372;SDS011;3219;51.362;7.074;2023-05-07T11:10:47;2.13;;;1.92;;
6372;SDS011;3219;51.362;7.074;2023-05-07T11:13:15;2.05;;;1.77;;
6372;SDS011;3219;51.362;7.074;2023-05-07T11:15:42;2.35;;;2.08;;
6372;SDS011;3219;51.362;7.074;2023-05-07T11:18:11;4.35;;;2.25;;
6372;SDS011;3219;51.362;7.074;2023-05-07T11:20:45;2.60;;;2.28;;
6372;SDS011;3219;51.362;7.074;2023-05-07T11:25:59;6.13;;;2.47;;
6372;SDS011;3219;51.362;7.074;2023-05-07T11:28:27;3.40;;;2.22;;
6372;SDS011;3219;51.362;7.074;2023-05-07T11:30:54;3.40;;;2.78;;
6372;SDS011;3219;51.362;7.074;2023-05-07T11:33:23;2.63;;;2.40;;
6372;SDS011;3219;51.362;7.074;2023-05-07T11:35:52;3.60;;;2.08;;
6372;SDS011;3219;51.362;7.074;2023-05-07T11:38:20;2.88;;;2.38;;
6372;SDS011;3219;51.362;7.074;2023-05-07T11:40:50;4.05;;;2.65;;
6372;SDS011;3219;51.362;7.074;2023-05-07T11:43:17;2.88;;;2.13;;
6372;SDS011;3219;51.362;7.074;2023-05-07T11:45:44;3.85;;;1.88;;
6372;SDS011;3219;51.362;7.074;2023-05-07T11:48:12;2.58;;;2.08;;
6372;SDS011;3219;51.362;7.074;2023-05-07T11:50:49;5.20;;;2.78;;
6372;SDS011;3219;51.362;7.074;2023-05-07T11:53:18;5.03;;;2.78;;
6372;SDS011;3219;51.362;7.074;2023-05-07T11:55:46;3.92;;;2.92;;
6372;SDS011;3219;51.362;7.074;2023-05-07T11:58:18;3.80;;;2.58;;
6372;SDS011;3219;51.362;7.074;2023-05-07T12:00:50;4.43;;;2.53;;
6372;SDS011;3219;51.362;7.074;2023-05-07T12:03:17;5.28;;;4.15;;
6372;SDS011;3219;51.362;7.074;2023-05-07T12:05:44;3.72;;;2.88;;
6372;SDS011;3219;51.362;7.074;2023-05-07T12:08:13;4.40;;;3.67;;
6372;SDS011;3219;51.362;7.074;2023-05-07T12:10:42;5.85;;;4.03;;
6372;SDS011;3219;51.362;7.074;2023-05-07T12:13:15;4.07;;;3.60;;
6372;SDS011;3219;51.362;7.074;2023-05-07T12:15:42;3.42;;;2.85;;
6372;SDS011;3219;51.362;7.074;2023-05-07T12:18:11;3.88;;;3.08;;
6372;SDS011;3219;51.362;7.074;2023-05-07T12:20:39;3.78;;;3.40;;
6372;SDS011;3219;51.362;7.074;2023-05-07T12:23:06;4.25;;;3.42;;
6372;SDS011;3219;51.362;7.074;2023-05-07T12:25:34;4.20;;;3.03;;
6372;SDS011;3219;51.362;7.074;2023-05-07T12:28:03;5.93;;;4.05;;
6372;SDS011;3219;51.362;7.074;2023-05-07T12:30:30;6.18;;;3.50;;
6372;SDS011;3219;51.362;7.074;2023-05-07T12:32:57;3.90;;;2.67;;
6372;SDS011;3219;51.362;7.074;2023-05-07T12:35:27;4.72;;;3.92;;
6372;SDS011;3219;51.362;7.074;2023-05-07T12:37:54;5.00;;;3.33;;
6372;SDS011;3219;51.362;7.074;2023-05-07T12:40:21;3.55;;;3.25;;
6372;SDS011;3219;51.362;7.074;2023-05-07T12:42:48;5.43;;;3.70;;
6372;SDS011;3219;51.362;7.074;2023-05-07T12:45:21;4.18;;;3.38;;
6372;SDS011;3219;51.362;7.074;2023-05-07T12:47:47;5.68;;;3.78;;
6372;SDS011;3219;51.362;7.074;2023-05-07T12:50:16;4.72;;;3.92;;
6372;SDS011;3219;51.362;7.074;2023-05-07T12:52:43;4.45;;;3.83;;
6372;SDS011;3219;51.362;7.074;2023-05-07T12:55:12;4.35;;;3.95;;
6372;SDS011;3219;51.362;7.074;2023-05-07T12:57:39;5.00;;;3.60;;
6372;SDS011;3219;51.362;7.074;2023-05-07T13:00:08;4.78;;;4.22;;
6372;SDS011;3219;51.362;7.074;2023-05-07T13:02:38;5.20;;;4.68;;
6372;SDS011;3219;51.362;7.074;2023-05-07T13:05:09;4.50;;;3.60;;
6372;SDS011;3219;51.362;7.074;2023-05-07T13:07:36;4.13;;;3.20;;
6372;SDS011;3219;51.362;7.074;2023-05-07T13:10:04;5.03;;;4.47;;
6372;SDS011;3219;51.362;7.074;2023-05-07T13:12:31;9.25;;;5.18;;
6372;SDS011;3219;51.362;7.074;2023-05-07T13:14:58;7.47;;;5.15;;
6372;SDS011;3219;51.362;7.074;2023-05-07T13:17:25;6.55;;;5.13;;
6372;SDS011;3219;51.362;7.074;2023-05-07T13:19:53;8.15;;;4.88;;
6372;SDS011;3219;51.362;7.074;2023-05-07T13:22:20;6.88;;;5.25;;
6372;SDS011;3219;51.362;7.074;2023-05-07T13:24:47;6.15;;;4.47;;
6372;SDS011;3219;51.362;7.074;2023-05-07T13:27:15;6.63;;;5.07;;
6372;SDS011;3219;51.362;7.074;2023-05-07T13:29:44;6.63;;;4.47;;
6372;SDS011;3219;51.362;7.074;2023-05-07T13:32:11;9.80;;;4.85;;
6372;SDS011;3219;51.362;7.074;2023-05-07T13:34:38;6.20;;;5.60;;
6372;SDS011;3219;51.362;7.074;2023-05-07T13:37:06;7.15;;;5.25;;
6372;SDS011;3219;51.362;7.074;2023-05-07T13:39:33;6.53;;;5.47;;
6372;SDS011;3219;51.362;7.074;2023-05-07T13:42:00;5.50;;;4.35;;
6372;SDS011;3219;51.362;7.074;2023-05-07T13:44:27;5.45;;;4.70;;
6372;SDS011;3219;51.362;7.074;2023-05-07T13:46:54;5.63;;;3.97;;
6372;SDS011;3219;51.362;7.074;2023-05-07T13:49:21;5.70;;;5.05;;
6372;SDS011;3219;51.362;7.074;2023-05-07T13:51:49;5.70;;;4.45;;
6372;SDS011;3219;51.362;7.074;2023-05-07T13:54:17;7.00;;;5.07;;
6372;SDS011;3219;51.362;7.074;2023-05-07T13:56:44;6.32;;;4.93;;
6372;SDS011;3219;51.362;7.074;2023-05-07T13:59:12;6.45;;;5.10;;
6372;SDS011;3219;51.362;7.074;2023-05-07T14:01:40;5.75;;;4.90;;
6372;SDS011;3219;51.362;7.074;2023-05-07T14:04:07;7.28;;;4.57;;
6372;SDS011;3219;51.362;7.074;2023-05-07T14:06:34;6.07;;;5.22;;
6372;SDS011;3219;51.362;7.074;2023-05-07T14:09:01;5.55;;;5.03;;
6372;SDS011;3219;51.362;7.074;2023-05-07T14:11:30;7.30;;;6.22;;
6372;SDS011;3219;51.362;7.074;2023-05-07T14:13:57;8.75;;;5.93;;
6372;SDS011;3219;51.362;7.074;2023-05-07T14:16:24;8.63;;;5.72;;
6372;SDS011;3219;51.362;7.074;2023-05-07T14:18:51;9.02;;;5.82;;
6372;SDS011;3219;51.362;7.074;2023-05-07T14:21:18;9.07;;;5.85;;
6372;SDS011;3219;51.362;7.074;2023-05-07T14:23:45;5.60;;;4.93;;
6372;SDS011;3219;51.362;7.074;2023-05-07T14:26:13;8.25;;;5.80;;
6372;SDS011;3219;51.362;7.074;2023-05-07T14:28:42;7.30;;;6.57;;
6372;SDS011;3219;51.362;7.074;2023-05-07T14:31:11;7.80;;;5.90;;
6372;SDS011;3219;51.362;7.074;2023-05-07T14:33:38;7.22;;;6.05;;
6372;SDS011;3219;51.362;7.074;2023-05-07T14:36:05;7.28;;;6.35;;
6372;SDS011;3219;51.362;7.074;2023-05-07T14:38:32;6.88;;;5.43;;
6372;SDS011;3219;51.362;7.074;2023-05-07T14:40:59;4.85;;;4.00;;
6372;SDS011;3219;51.362;7.074;2023-05-07T14:43:26;6.22;;;4.05;;
6372;SDS011;3219;51.362;7.074;2023-05-07T14:45:55;3.58;;;3.05;;
6372;SDS011;3219;51.362;7.074;2023-05-07T14:48:22;3.28;;;2.58;;
6372;SDS011;3219;51.362;7.074;2023-05-07T14:50:49;5.53;;;5.03;;
6372;SDS011;3219;51.362;7.074;2023-05-07T14:53:16;5.47;;;3.72;;
6372;SDS011;3219;51.362;7.074;2023-05-07T14:55:43;5.60;;;4.50;;
6372;SDS011;3219;51.362;7.074;2023-05-07T14:58:10;5.85;;;4.80;;
6372;SDS011;3219;51.362;7.074;2023-05-07T15:00:38;6.68;;;5.18;;
6372;SDS011;3219;51.362;7.074;2023-05-07T15:03:07;7.63;;;4.88;;
6372;SDS011;3219;51.362;7.074;2023-05-07T15:05:35;5.10;;;4.50;;
6372;SDS011;3219;51.362;7.074;2023-05-07T15:08:02;6.13;;;5.28;;
6372;SDS011;3219;51.362;7.074;2023-05-07T15:10:30;9.50;;;6.68;;
6372;SDS011;3219;51.362;7.074;2023-05-07T15:12:57;7.95;;;6.30;;
6372;SDS011;3219;51.362;7.074;2023-05-07T15:15:24;6.93;;;5.45;;
6372;SDS011;3219;51.362;7.074;2023-05-07T15:17:51;9.63;;;6.95;;
6372;SDS011;3219;51.362;7.074;2023-05-07T15:20:20;9.27;;;6.60;;
6372;SDS011;3219;51.362;7.074;2023-05-07T15:22:47;6.57;;;5.72;;
6372;SDS011;3219;51.362;7.074;2023-05-07T15:25:14;10.43;;;7.47;;
6372;SDS011;3219;51.362;7.074;2023-05-07T15:27:41;7.45;;;6.13;;